createdAt,value
2022-11-09T00:00:02.922Z,98204.38
2022-11-09T00:03:05.600Z,98203.56
2022-11-09T00:06:10.295Z,98195.53
2022-11-09T00:09:12.904Z,98203.72
2022-11-09T00:12:15.588Z,98201.00
2022-11-09T00:15:18.305Z,98205.66
2022-11-09T00:18:20.962Z,98198.25
2022-11-09T00:21:26.406Z,98192.31
2022-11-09T00:24:29.084Z,98183.66
2022-11-09T00:27:32.005Z,98186.72
2022-11-09T00:30:34.773Z,98186.03
2022-11-09T00:33:37.708Z,98182.84
2022-11-09T00:36:41.939Z,98188.66
2022-11-09T00:39:44.979Z,98190.59
2022-11-09T00:42:47.770Z,98188.31
2022-11-09T00:45:50.497Z,98187.53
2022-11-09T00:48:55.670Z,98184.91
2022-11-09T00:51:59.653Z,98176.38
2022-11-09T00:55:02.191Z,98176.69
2022-11-09T00:58:05.269Z,98179.13
2022-11-09T01:01:11.227Z,98182.31
2022-11-09T01:04:13.865Z,98172.97
2022-11-09T01:07:17.964Z,98176.03
2022-11-09T01:10:20.690Z,98174.56
2022-11-09T01:13:23.496Z,98187.03
2022-11-09T01:16:26.063Z,98193.75
2022-11-09T01:19:28.646Z,98191.09
2022-11-09T01:22:32.684Z,98182.09
2022-11-09T01:25:35.356Z,98188.22
2022-11-09T01:28:38.516Z,98192.44
2022-11-09T01:31:41.175Z,98192.09
2022-11-09T01:34:43.804Z,98186.97
2022-11-09T01:37:47.793Z,98190.06
2022-11-09T01:40:50.413Z,98187.63
2022-11-09T01:44:07.837Z,98183.00
2022-11-09T01:47:24.781Z,98185.72
2022-11-09T01:50:35.876Z,98178.63
2022-11-09T01:53:43.881Z,98172.50
2022-11-09T01:56:47.428Z,98177.84
2022-11-09T01:59:51.313Z,98182.50
2022-11-09T02:02:57.563Z,98173.75
2022-11-09T02:06:00.882Z,98175.94
2022-11-09T02:09:09.480Z,98182.31
2022-11-09T02:12:12.159Z,98184.94
2022-11-09T02:15:14.933Z,98180.41
2022-11-09T02:18:17.979Z,98193.31
2022-11-09T02:21:22.692Z,98178.59
2022-11-09T02:24:25.783Z,98176.44
2022-11-09T02:27:28.425Z,98173.03
2022-11-09T02:30:31.045Z,98178.50
2022-11-09T02:33:43.467Z,98179.75
2022-11-09T02:36:47.664Z,98195.03
2022-11-09T02:39:50.263Z,98197.75
2022-11-09T02:42:53.352Z,98210.28
2022-11-09T02:45:56.044Z,98206.31
2022-11-09T02:48:58.685Z,98218.16
2022-11-09T02:52:02.775Z,98217.03
2022-11-09T02:55:05.856Z,98217.13
2022-11-09T02:58:08.516Z,98234.47
2022-11-09T03:01:11.178Z,98239.28
2022-11-09T03:04:13.878Z,98226.41
2022-11-09T03:07:17.994Z,98238.94
2022-11-09T03:10:20.710Z,98239.97
2022-11-09T03:13:23.447Z,98246.59
2022-11-09T03:16:26.035Z,98240.88
2022-11-09T03:19:28.625Z,98225.31
2022-11-09T03:22:32.615Z,98242.97
2022-11-09T03:25:35.275Z,98232.59
2022-11-09T03:28:37.897Z,98237.63
2022-11-09T03:31:40.468Z,98230.81
2022-11-09T03:34:43.120Z,98239.28
2022-11-09T03:37:47.153Z,98249.72
2022-11-09T03:40:49.720Z,98252.56
2022-11-09T03:43:52.335Z,98249.09
2022-11-09T03:46:54.933Z,98251.50
2022-11-09T03:49:57.653Z,98246.69
2022-11-09T03:53:02.186Z,98251.72
2022-11-09T03:56:04.804Z,98247.63
2022-11-09T03:59:07.407Z,98245.25
2022-11-09T04:02:10.095Z,98249.53
2022-11-09T04:05:13.268Z,98248.78
2022-11-09T04:08:17.241Z,98245.91
2022-11-09T04:11:19.885Z,98253.44
2022-11-09T04:14:22.671Z,98259.09
2022-11-09T04:17:25.361Z,98259.09
2022-11-09T04:20:29.377Z,98257.72
2022-11-09T04:23:33.477Z,98263.31
2022-11-09T04:26:36.149Z,98271.97
2022-11-09T04:29:38.842Z,98274.84
2022-11-09T04:32:41.427Z,98280.94
2022-11-09T04:35:44.098Z,98284.47
2022-11-09T04:38:48.004Z,98278.22
2022-11-09T04:41:50.599Z,98281.41
2022-11-09T04:44:53.349Z,98277.94
2022-11-09T04:47:58.639Z,98278.38
2022-11-09T04:51:02.247Z,98269.81
2022-11-09T04:54:06.203Z,98269.66
2022-11-09T04:57:08.797Z,98261.53
2022-11-09T05:00:12.127Z,98250.66
2022-11-09T05:03:14.742Z,98241.50
2022-11-09T05:06:35.677Z,98237.31
2022-11-09T05:09:39.703Z,98244.91
2022-11-09T05:12:45.722Z,98249.28
2022-11-09T05:15:48.722Z,98254.06
2022-11-09T05:18:51.782Z,98275.13
2022-11-09T05:21:54.442Z,98268.19
2022-11-09T05:24:57.370Z,98257.78
2022-11-09T05:27:59.999Z,98255.06
2022-11-09T05:31:02.668Z,98247.38
2022-11-09T05:34:06.225Z,98236.97
2022-11-09T05:37:08.920Z,98245.53
2022-11-09T05:40:13.253Z,98234.19
2022-11-09T05:43:17.528Z,98235.31
2022-11-09T05:46:20.924Z,98236.78
2022-11-09T05:49:23.746Z,98232.44
2022-11-09T05:52:26.316Z,98243.72
2022-11-09T05:55:30.402Z,98233.25
2022-11-09T05:58:37.975Z,98235.97
2022-11-09T06:01:40.636Z,98231.66
2022-11-09T06:04:43.341Z,98233.59
2022-11-09T06:07:45.938Z,98224.78
2022-11-09T06:10:49.897Z,98242.31
2022-11-09T06:13:52.889Z,98238.44
2022-11-09T06:16:55.488Z,98247.94
2022-11-09T06:19:58.150Z,98250.44
2022-11-09T06:23:03.908Z,98258.97
2022-11-09T06:26:10.272Z,98265.84
2022-11-09T06:29:12.891Z,98271.13
2022-11-09T06:32:15.471Z,98275.00
2022-11-09T06:35:18.253Z,98274.31
2022-11-09T06:38:20.842Z,98286.03
2022-11-09T06:41:24.744Z,98292.97
2022-11-09T06:44:30.208Z,98288.47
2022-11-09T06:47:33.939Z,98288.03
2022-11-09T06:50:36.742Z,98276.94
2022-11-09T06:53:41.347Z,98291.72
2022-11-09T06:56:45.370Z,98296.38
2022-11-09T06:59:48.742Z,98303.63
2022-11-09T07:02:51.652Z,98303.63
2022-11-09T07:05:54.247Z,98301.69
2022-11-09T07:08:57.151Z,98318.25
2022-11-09T07:12:01.369Z,98319.94
2022-11-09T07:15:04.871Z,98331.03
2022-11-09T07:18:09.350Z,98334.22
2022-11-09T07:21:14.354Z,98345.97
2022-11-09T07:24:17.388Z,98413.00
2022-11-09T07:27:24.923Z,98425.88
2022-11-09T07:30:30.388Z,98403.53
2022-11-09T07:33:33.423Z,98407.13
2022-11-09T07:36:36.748Z,98399.94
2022-11-09T07:39:39.477Z,98384.47
2022-11-09T07:42:43.498Z,98380.44
2022-11-09T07:45:46.105Z,98380.81
2022-11-09T07:48:48.729Z,98369.00
2022-11-09T07:51:51.312Z,98373.34
2022-11-09T07:54:53.974Z,98361.50
2022-11-09T07:57:58.744Z,98359.50
2022-11-09T08:01:01.331Z,98361.31
2022-11-09T08:04:04.193Z,98373.72
2022-11-09T08:07:06.830Z,98372.22
2022-11-09T08:10:10.313Z,98371.41
2022-11-09T08:13:15.195Z,98379.78
2022-11-09T08:16:17.888Z,98379.13
2022-11-09T08:19:20.421Z,98376.31
2022-11-09T08:22:23.046Z,98376.31
2022-11-09T08:25:26.120Z,98378.13
2022-11-09T08:28:30.214Z,98373.69
2022-11-09T08:31:33.221Z,98369.72
2022-11-09T08:34:35.963Z,98372.69
2022-11-09T08:37:39.170Z,98366.63
2022-11-09T08:40:41.727Z,98376.13
2022-11-09T08:43:45.723Z,98387.31
2022-11-09T08:46:48.284Z,98377.59
2022-11-09T08:49:50.885Z,98375.06
2022-11-09T08:52:53.558Z,98379.50
2022-11-09T08:55:56.418Z,98372.97
2022-11-09T08:59:00.387Z,98379.78
2022-11-09T09:02:03.468Z,98381.56
2022-11-09T09:05:06.807Z,98373.69
2022-11-09T09:08:11.619Z,98364.66
2022-11-09T09:11:14.203Z,98360.19
2022-11-09T09:14:18.156Z,98364.09
2022-11-09T09:17:20.809Z,98370.03
2022-11-09T09:20:23.453Z,98374.59
2022-11-09T09:23:26.119Z,98378.06
2022-11-09T09:26:28.734Z,98385.81
2022-11-09T09:29:32.685Z,98402.66
2022-11-09T09:32:35.301Z,98404.19
2022-11-09T09:35:37.908Z,98406.00
2022-11-09T09:38:40.480Z,98396.34
2022-11-09T09:41:47.720Z,98398.09
2022-11-09T09:44:55.453Z,98402.97
2022-11-09T09:48:01.685Z,98396.28
2022-11-09T09:51:10.547Z,98405.97
2022-11-09T09:54:16.059Z,98394.84
2022-11-09T09:57:21.208Z,98400.97
2022-11-09T10:00:27.194Z,98401.38
2022-11-09T10:03:29.819Z,98411.97
2022-11-09T10:06:40.411Z,98403.13
2022-11-09T10:10:04.976Z,98405.66
2022-11-09T10:13:34.810Z,98405.94
2022-11-09T10:16:45.461Z,98395.91
2022-11-09T10:19:57.323Z,98393.16
2022-11-09T10:23:14.785Z,98393.28
2022-11-09T10:26:20.002Z,98387.28
2022-11-09T10:29:25.304Z,98382.44
2022-11-09T10:32:31.342Z,98383.28
2022-11-09T10:35:37.863Z,98386.28
2022-11-09T10:38:45.027Z,98372.13
2022-11-09T10:41:47.787Z,98370.44
2022-11-09T10:44:50.498Z,98370.69
2022-11-09T10:47:54.859Z,98368.16
2022-11-09T10:50:58.378Z,98365.00
2022-11-09T10:54:16.068Z,98357.91
2022-11-09T10:57:20.028Z,98359.13
2022-11-09T11:00:23.448Z,98357.91
2022-11-09T11:03:27.303Z,98358.94
2022-11-09T11:06:31.516Z,98352.38
2022-11-09T11:09:34.405Z,98350.50
2022-11-09T11:12:37.161Z,98354.34
2022-11-09T11:15:41.260Z,98350.41
2022-11-09T11:18:47.562Z,98341.41
2022-11-09T11:22:23.039Z,98340.59
2022-11-09T11:25:26.479Z,98339.41
2022-11-09T11:28:36.009Z,98329.78
2022-11-09T11:31:39.597Z,98335.25
2022-11-09T11:34:59.822Z,98343.09
2022-11-09T11:38:12.074Z,98336.88
2022-11-09T11:41:42.105Z,98334.06
2022-11-09T11:45:18.516Z,98324.69
2022-11-09T11:48:39.700Z,98323.94
2022-11-09T11:51:48.824Z,98324.13
2022-11-09T11:55:08.780Z,98320.38
2022-11-09T11:58:24.411Z,98318.47
2022-11-09T12:01:43.738Z,98310.34
2022-11-09T12:05:01.390Z,98317.81
2022-11-09T12:08:12.161Z,98314.84
2022-11-09T12:11:19.608Z,98316.97
2022-11-09T12:14:35.276Z,98307.09
2022-11-09T12:17:43.495Z,98306.63
2022-11-09T12:21:04.768Z,98306.16
2022-11-09T12:24:17.239Z,98296.38
2022-11-09T12:27:35.083Z,98290.22
2022-11-09T12:30:45.774Z,98290.41
2022-11-09T12:33:52.057Z,98295.72
2022-11-09T12:36:57.490Z,98288.19
2022-11-09T12:40:08.544Z,98281.44
2022-11-09T12:43:16.559Z,98287.97
2022-11-09T12:46:20.700Z,98279.34
2022-11-09T12:49:32.067Z,98272.69
2022-11-09T12:52:34.818Z,98277.41
2022-11-09T12:55:43.653Z,98279.63
2022-11-09T12:58:46.585Z,98273.06
2022-11-09T13:01:54.208Z,98269.94
2022-11-09T13:04:58.502Z,98277.81
2022-11-09T13:08:02.885Z,98280.13
2022-11-09T13:11:12.441Z,98275.78
2022-11-09T13:14:36.063Z,98285.91
2022-11-09T13:17:55.027Z,98287.91
2022-11-09T13:20:58.196Z,98286.34
2022-11-09T13:24:27.124Z,98289.78
2022-11-09T13:27:39.896Z,98288.03
2022-11-09T13:30:43.360Z,98299.16
2022-11-09T13:33:45.985Z,98299.13
2022-11-09T13:37:22.333Z,98300.31
2022-11-09T13:40:45.762Z,98304.91
2022-11-09T13:44:08.367Z,98304.84
2022-11-09T13:47:22.448Z,98313.00
2022-11-09T13:50:26.291Z,98310.09
2022-11-09T13:53:31.865Z,98313.63
2022-11-09T13:56:37.650Z,98317.91
2022-11-09T13:59:46.823Z,98319.63
2022-11-09T14:02:54.270Z,98319.13
2022-11-09T14:05:59.576Z,98318.66
2022-11-09T14:09:02.496Z,98327.56
2022-11-09T14:12:12.897Z,98333.66
2022-11-09T14:15:28.554Z,98329.72
2022-11-09T14:18:40.079Z,98337.28
2022-11-09T14:21:46.652Z,98332.50
2022-11-09T14:24:49.829Z,98350.63
2022-11-09T14:27:57.303Z,98352.78
2022-11-09T14:31:02.040Z,98349.50
2022-11-09T14:34:06.046Z,98349.34
2022-11-09T14:37:08.788Z,98355.09
2022-11-09T14:40:18.571Z,98360.41
2022-11-09T14:43:28.542Z,98356.34
2022-11-09T14:46:32.897Z,98364.88
2022-11-09T14:49:35.672Z,98369.09
2022-11-09T14:52:38.371Z,98368.19
2022-11-09T14:55:42.217Z,98366.50
2022-11-09T14:58:45.776Z,98371.88
2022-11-09T15:02:01.970Z,98375.72
2022-11-09T15:05:06.856Z,98374.78
2022-11-09T15:08:16.639Z,98380.03
2022-11-09T15:11:19.334Z,98381.28
2022-11-09T15:14:27.539Z,98380.25
2022-11-09T15:17:33.404Z,98376.44
2022-11-09T15:20:36.068Z,98378.47
2022-11-09T15:23:40.319Z,98377.22
2022-11-09T15:26:44.615Z,98394.38
2022-11-09T15:29:47.300Z,98379.56
2022-11-09T15:32:51.628Z,98384.09
2022-11-09T15:35:56.384Z,98383.56
2022-11-09T15:39:03.046Z,98385.69
2022-11-09T15:42:06.137Z,98387.63
2022-11-09T15:45:09.702Z,98383.47
2022-11-09T15:48:13.896Z,98393.56
2022-11-09T15:51:16.946Z,98392.88
2022-11-09T15:54:19.668Z,98393.31
2022-11-09T15:57:22.883Z,98388.97
2022-11-09T16:00:25.912Z,98398.81
2022-11-09T16:03:29.870Z,98402.28
2022-11-09T16:06:32.675Z,98397.84
2022-11-09T16:09:35.403Z,98408.31
2022-11-09T16:12:42.512Z,98413.28
2022-11-09T16:15:48.733Z,98415.94
2022-11-09T16:18:52.742Z,98416.22
2022-11-09T16:21:55.603Z,98419.84
2022-11-09T16:24:58.539Z,98426.66
2022-11-09T16:28:01.252Z,98430.38
2022-11-09T16:31:04.143Z,98434.53
2022-11-09T16:34:08.271Z,98437.16
2022-11-09T16:37:11.009Z,98438.13
2022-11-09T16:40:15.815Z,98438.75
2022-11-09T16:43:18.583Z,98449.19
2022-11-09T16:46:24.070Z,98451.81
2022-11-09T16:49:27.991Z,98445.88
2022-11-09T16:52:30.602Z,98458.69
2022-11-09T16:55:33.262Z,98468.53
2022-11-09T16:58:36.487Z,98466.47
2022-11-09T17:01:39.280Z,98466.91
2022-11-09T17:04:43.249Z,98473.97
2022-11-09T17:07:47.859Z,98463.78
2022-11-09T17:10:50.443Z,98473.97
2022-11-09T17:13:57.331Z,98481.44
2022-11-09T17:17:00.306Z,98479.47
2022-11-09T17:20:06.965Z,98476.28
2022-11-09T17:23:10.211Z,98488.88
2022-11-09T17:26:13.776Z,98489.06
2022-11-09T17:29:16.384Z,98502.25
2022-11-09T17:32:22.481Z,98505.28
2022-11-09T17:35:26.711Z,98511.25
2022-11-09T17:38:30.024Z,98522.91
2022-11-09T17:41:32.721Z,98533.44
2022-11-09T17:44:35.573Z,98536.78
2022-11-09T17:47:38.202Z,98542.03
2022-11-09T17:50:42.428Z,98546.38
2022-11-09T17:53:45.465Z,98541.91
2022-11-09T17:56:48.104Z,98535.63
2022-11-09T17:59:50.668Z,98544.88
2022-11-09T18:02:55.490Z,98544.88
2022-11-09T18:05:59.556Z,98551.63
2022-11-09T18:12:25.145Z,98552.31
2022-11-09T18:15:28.114Z,98568.69
2022-11-09T18:18:30.839Z,98566.41
2022-11-09T18:21:41.612Z,98567.63
2022-11-09T18:24:44.261Z,98568.22
2022-11-09T18:27:47.537Z,98563.09
2022-11-09T18:30:50.296Z,98561.34
2022-11-09T18:33:53.227Z,98566.41
2022-11-09T18:36:57.104Z,98565.16
2022-11-09T18:39:59.767Z,98566.28
2022-11-09T18:43:02.458Z,98569.59
2022-11-09T18:46:06.797Z,98574.50
2022-11-09T18:49:14.111Z,98574.63
2022-11-09T18:52:18.604Z,98582.53
2022-11-09T18:55:21.276Z,98583.31
2022-11-09T18:58:24.379Z,98581.50
2022-11-09T19:01:27.444Z,98585.75
2022-11-09T19:04:30.084Z,98588.22
2022-11-09T19:07:34.110Z,98589.72
2022-11-09T19:10:37.216Z,98588.47
2022-11-09T19:13:40.098Z,98596.38
2022-11-09T19:16:42.823Z,98601.72
2022-11-09T19:19:45.457Z,98604.47
2022-11-09T19:22:49.456Z,98608.81
2022-11-09T19:25:52.146Z,98617.31
2022-11-09T19:28:54.837Z,98619.13
2022-11-09T19:31:57.541Z,98618.09
2022-11-09T19:35:00.189Z,98626.41
2022-11-09T19:38:06.509Z,98624.81
2022-11-09T19:41:10.183Z,98632.72
2022-11-09T19:44:14.849Z,98632.72
2022-11-09T19:47:17.459Z,98647.69
2022-11-09T19:50:20.210Z,98645.25
2022-11-09T19:53:24.358Z,98648.34
2022-11-09T19:56:28.710Z,98659.31
2022-11-09T19:59:31.244Z,98664.22
2022-11-09T20:02:33.894Z,98666.38
2022-11-09T20:05:36.967Z,98664.78
2022-11-09T20:08:41.229Z,98674.31
2022-11-09T20:12:01.898Z,98677.97
2022-11-09T20:15:04.890Z,98671.41
2022-11-09T20:18:07.518Z,98679.50
2022-11-09T20:21:10.379Z,98697.09
2022-11-09T20:24:15.224Z,98690.00
2022-11-09T20:27:17.878Z,98699.34
2022-11-09T20:30:20.731Z,98700.44
2022-11-09T20:33:23.621Z,98709.75
2022-11-09T20:36:26.476Z,98714.53
2022-11-09T20:39:30.426Z,98725.84
2022-11-09T20:42:33.254Z,98725.84
2022-11-09T20:45:37.181Z,98730.66
2022-11-09T20:48:53.595Z,98737.88
2022-11-09T20:51:57.086Z,98738.63
2022-11-09T20:55:01.103Z,98741.81
2022-11-09T20:58:03.770Z,98751.00
2022-11-09T21:01:09.175Z,98751.91
2022-11-09T21:04:11.967Z,98758.47
2022-11-09T21:07:14.636Z,98765.22
2022-11-09T21:10:19.115Z,98767.88
2022-11-09T21:13:22.163Z,98766.78
2022-11-09T21:16:25.096Z,98773.97
2022-11-09T21:19:27.800Z,98771.97
2022-11-09T21:22:44.296Z,98769.66
2022-11-09T21:26:05.571Z,98780.19
2022-11-09T21:29:30.288Z,98781.94
2022-11-09T21:32:33.100Z,98782.03
2022-11-09T21:35:36.138Z,98779.19
2022-11-09T21:38:38.834Z,98790.16
2022-11-09T21:41:42.868Z,98791.28
2022-11-09T21:44:45.597Z,98797.81
2022-11-09T21:47:48.352Z,98795.66
2022-11-09T21:50:52.782Z,98792.38
2022-11-09T21:53:55.366Z,98801.03
2022-11-09T21:56:59.759Z,98800.63
2022-11-09T22:00:02.545Z,98804.88
2022-11-09T22:03:05.208Z,98807.19
2022-11-09T22:06:07.955Z,98811.38
2022-11-09T22:09:14.637Z,98815.59
2022-11-09T22:12:36.293Z,98809.97
2022-11-09T22:15:56.822Z,98816.91
2022-11-09T22:19:17.133Z,98815.16
2022-11-09T22:22:19.834Z,98820.50
2022-11-09T22:25:22.465Z,98818.44
2022-11-09T22:28:26.433Z,98827.31
2022-11-09T22:31:29.165Z,98830.38
2022-11-09T22:34:32.016Z,98836.66
2022-11-09T22:37:34.768Z,98841.34
2022-11-09T22:40:37.540Z,98834.91
2022-11-09T22:43:43.015Z,98850.56
2022-11-09T22:46:45.616Z,98851.69
2022-11-09T22:49:48.218Z,98851.34
2022-11-09T22:52:53.907Z,98871.84
2022-11-09T22:55:57.920Z,98872.63
2022-11-09T22:59:02.064Z,98877.97
2022-11-09T23:02:04.686Z,98886.69
2022-11-09T23:05:08.859Z,98891.50
2022-11-09T23:08:11.872Z,98889.41
2022-11-09T23:11:16.486Z,98892.50
2022-11-09T23:14:40.561Z,98903.75
2022-11-09T23:18:00.432Z,98922.00
2022-11-09T23:21:02.989Z,98924.25
2022-11-09T23:24:28.601Z,98941.50
2022-11-09T23:27:31.242Z,98941.97
2022-11-09T23:30:35.202Z,98941.63
2022-11-09T23:33:38.126Z,98945.50
2022-11-09T23:36:40.788Z,98950.03
2022-11-09T23:39:43.373Z,98945.19
2022-11-09T23:42:45.991Z,98939.06
2022-11-09T23:45:49.915Z,98942.00
2022-11-09T23:48:52.549Z,98938.16
2022-11-09T23:51:55.177Z,98947.34
2022-11-09T23:54:57.913Z,98955.84
2022-11-09T23:58:02.534Z,98954.22
